Time;durP1;ratioP1;P1;durP2;ratioP2;P2;SDS_P1;SDS_P2;PMS_P1;PMS_P2;Temp;Humidity;BMP_temperature;BMP_pressure;BME280_temperature;BME280_humidity;BME280_pressure;Samples;Min_cycle;Max_cycle;Signal;HPM_P1;HPM_P2
2022/12/01 00:02:09;;;;;;;11.87;9.70;;;6.50;99.90;;;;;;6245320;28;20757;-63
2022/12/01 00:05:14;;;;;;;8.57;7.67;;;6.50;99.90;;;;;;6250062;28;20473;-63
2022/12/01 00:08:18;;;;;;;12.00;9.73;;;6.50;99.90;;;;;;6249683;28;20467;-63
2022/12/01 00:11:20;;;;;;;9.43;8.53;;;6.50;99.90;;;;;;6250715;28;20547;-63
2022/12/01 00:14:23;;;;;;;8.80;7.90;;;6.50;99.90;;;;;;6249936;28;20481;-63
2022/12/01 00:17:29;;;;;;;10.90;9.00;;;6.30;99.90;;;;;;6249913;28;20931;-63
2022/12/01 00:20:35;;;;;;;11.90;10.07;;;6.30;99.90;;;;;;6249874;28;20561;-62
2022/12/01 00:23:38;;;;;;;10.87;9.77;;;6.30;99.90;;;;;;6263878;28;20481;-63
2022/12/01 00:26:41;;;;;;;11.40;9.50;;;6.20;99.90;;;;;;6274124;28;20481;-64
2022/12/01 00:29:46;;;;;;;11.43;8.90;;;6.20;99.90;;;;;;6266224;28;20478;-64
2022/12/01 00:32:49;;;;;;;9.90;8.40;;;6.20;99.90;;;;;;6254067;28;20466;-63
2022/12/01 00:35:59;;;;;;;11.07;9.70;;;6.20;99.90;;;;;;6254417;28;20478;-64
2022/12/01 00:39:02;;;;;;;10.50;8.63;;;6.20;99.90;;;;;;6253958;28;20475;-63
2022/12/01 00:42:05;;;;;;;12.03;10.80;;;6.20;99.90;;;;;;6262524;28;20477;-65
2022/12/01 00:45:15;;;;;;;10.83;9.07;;;6.30;99.90;;;;;;6257798;28;20947;-65
2022/12/01 00:48:18;;;;;;;11.10;9.23;;;6.40;99.90;;;;;;6253935;28;20486;-64
2022/12/01 00:51:23;;;;;;;11.50;9.13;;;6.40;99.90;;;;;;6256056;28;20482;-64
2022/12/01 00:54:26;;;;;;;10.57;8.90;;;6.40;99.90;;;;;;6265841;28;20977;-64
2022/12/01 00:57:29;;;;;;;11.73;8.73;;;6.30;99.90;;;;;;6256835;28;20970;-64
2022/12/01 01:00:32;;;;;;;10.50;9.23;;;6.40;99.90;;;;;;6253478;28;20989;-64
2022/12/01 01:03:35;;;;;;;10.43;9.00;;;6.30;99.90;;;;;;6253667;28;20471;-64
2022/12/01 01:06:42;;;;;;;10.30;8.80;;;6.30;99.90;;;;;;6248904;28;20482;-64
2022/12/01 01:09:45;;;;;;;10.33;8.70;;;6.30;99.90;;;;;;6253547;28;20486;-64
2022/12/01 01:12:49;;;;;;;12.77;9.83;;;6.30;99.90;;;;;;6253574;28;20482;-64
2022/12/01 01:15:57;;;;;;;10.10;8.67;;;6.30;99.90;;;;;;6256283;28;20467;-64
2022/12/01 01:19:01;;;;;;;10.47;9.23;;;6.40;99.90;;;;;;6254736;28;20505;-64
2022/12/01 01:22:05;;;;;;;11.53;9.63;;;6.40;99.90;;;;;;6254116;28;21017;-64
2022/12/01 01:25:09;;;;;;;11.10;9.83;;;6.40;99.90;;;;;;6281812;28;20482;-64
2022/12/01 01:28:12;;;;;;;9.03;7.90;;;6.40;99.90;;;;;;6278572;28;20527;-64
2022/12/01 01:31:17;;;;;;;10.87;9.50;;;6.50;99.90;;;;;;6256495;28;20491;-65
2022/12/01 01:34:21;;;;;;;10.50;9.30;;;6.50;99.90;;;;;;6252119;28;20467;-64
2022/12/01 01:37:25;;;;;;;11.13;9.93;;;6.60;99.90;;;;;;6251159;28;20478;-65
2022/12/01 01:40:28;;;;;;;14.27;10.70;;;6.60;99.90;;;;;;6251222;28;20852;-64
2022/12/01 01:43:43;;;;;;;12.33;10.30;;;6.60;99.90;;;;;;6250169;28;20979;-64
2022/12/01 01:46:47;;;;;;;10.53;9.43;;;6.60;99.90;;;;;;6251129;28;20561;-64
2022/12/01 01:49:50;;;;;;;10.73;8.43;;;6.50;99.90;;;;;;6251360;28;20505;-64
2022/12/01 01:52:59;;;;;;;9.90;9.00;;;6.50;99.90;;;;;;6252473;28;20455;-64
2022/12/01 01:56:03;;;;;;;11.47;10.27;;;6.60;99.90;;;;;;6252284;28;20424;-64
2022/12/01 01:59:06;;;;;;;11.50;9.67;;;6.50;99.90;;;;;;6252353;28;20484;-64
2022/12/01 02:02:11;;;;;;;11.93;9.70;;;6.50;99.90;;;;;;6258072;28;20440;-64
2022/12/01 02:05:19;;;;;;;13.50;10.40;;;6.40;99.90;;;;;;6267652;28;20462;-64
2022/12/01 02:08:23;;;;;;;11.67;10.47;;;6.40;99.90;;;;;;6277203;28;20467;-64
2022/12/01 02:11:51;;;;;;;10.27;9.27;;;6.40;99.90;;;;;;6257352;28;20479;-64
2022/12/01 02:15:12;;;;;;;11.13;9.60;;;6.40;99.90;;;;;;6263288;28;20475;-64
2022/12/01 02:18:26;;;;;;;11.20;9.13;;;6.40;99.90;;;;;;6258636;28;20474;-64
2022/12/01 02:21:37;;;;;;;12.10;10.03;;;6.40;99.90;;;;;;6261863;28;21004;-67
2022/12/01 02:25:16;;;;;;;9.70;8.70;;;6.40;99.90;;;;;;6262972;28;20950;-64
2022/12/01 02:28:43;;;;;;;10.17;7.80;;;6.40;99.90;;;;;;6253626;28;20474;-63
2022/12/01 02:31:56;;;;;;;9.23;8.30;;;6.50;99.90;;;;;;6261805;28;20471;-63
2022/12/01 02:35:04;;;;;;;8.53;6.30;;;6.40;99.90;;;;;;6260066;28;20895;-63
2022/12/01 02:38:14;;;;;;;7.60;6.60;;;6.40;99.90;;;;;;6261812;28;20431;-62
2022/12/01 02:41:24;;;;;;;8.07;6.37;;;6.40;99.90;;;;;;6251444;28;20959;-62
2022/12/01 02:44:32;;;;;;;9.20;6.60;;;6.40;99.90;;;;;;6251619;28;20475;-62
2022/12/01 02:47:38;;;;;;;7.80;6.80;;;6.40;99.90;;;;;;6251500;28;20536;-62
2022/12/01 02:50:42;;;;;;;7.03;6.30;;;6.40;99.90;;;;;;6251194;28;20498;-63
2022/12/01 02:53:46;;;;;;;8.90;7.20;;;6.40;99.90;;;;;;6251031;28;20837;-62
2022/12/01 02:56:53;;;;;;;9.50;7.07;;;6.40;99.90;;;;;;6250960;28;20794;-62
2022/12/01 02:59:57;;;;;;;7.20;5.93;;;6.40;99.90;;;;;;6250919;28;20479;-62
2022/12/01 03:03:22;;;;;;;6.90;6.20;;;6.40;99.90;;;;;;6251283;28;20483;-63
2022/12/01 03:06:36;;;;;;;6.63;5.93;;;6.50;99.90;;;;;;6251167;28;20498;-63
2022/12/01 03:09:49;;;;;;;6.73;6.03;;;6.40;99.90;;;;;;6251183;28;20476;-63
2022/12/01 03:13:04;;;;;;;5.73;5.23;;;6.40;99.90;;;;;;6250945;28;20554;-63
2022/12/01 03:16:12;;;;;;;6.13;5.43;;;6.40;99.90;;;;;;6241779;28;20459;-63
2022/12/01 03:19:21;;;;;;;5.00;4.60;;;6.30;99.90;;;;;;6250730;28;20521;-63
2022/12/01 03:22:31;;;;;;;5.97;5.37;;;6.30;99.90;;;;;;6254949;28;20475;-63
2022/12/01 03:25:35;;;;;;;6.17;5.00;;;6.30;99.90;;;;;;6275291;28;20974;-63
2022/12/01 03:28:44;;;;;;;5.87;5.30;;;6.20;99.90;;;;;;6275247;28;20493;-63
2022/12/01 03:31:52;;;;;;;6.03;4.97;;;6.30;99.90;;;;;;6226666;28;20472;-63
2022/12/01 03:35:00;;;;;;;5.33;4.83;;;6.30;99.90;;;;;;6227670;28;20441;-63
2022/12/01 03:38:09;;;;;;;4.83;4.23;;;6.30;99.90;;;;;;6228148;28;20425;-63
2022/12/01 03:41:18;;;;;;;5.30;4.50;;;6.30;99.90;;;;;;6227625;28;20476;-63
2022/12/01 03:44:25;;;;;;;5.50;5.00;;;6.30;99.90;;;;;;6226961;28;20484;-63
2022/12/01 03:47:31;;;;;;;5.60;5.00;;;6.20;99.90;;;;;;6226304;28;20538;-63
2022/12/01 03:50:41;;;;;;;5.47;4.93;;;6.20;99.90;;;;;;6226649;28;20480;-63
2022/12/01 03:53:52;;;;;;;4.87;4.47;;;6.20;99.90;;;;;;6227055;28;20476;-63
2022/12/01 03:57:00;;;;;;;5.80;5.30;;;6.20;99.90;;;;;;6225921;28;20473;-63
2022/12/01 04:00:05;;;;;;;5.90;5.37;;;6.20;99.90;;;;;;6225723;28;20504;-63
2022/12/01 04:03:16;;;;;;;6.40;5.30;;;6.20;99.90;;;;;;6225212;28;20995;-63
2022/12/01 04:06:20;;;;;;;5.00;4.50;;;6.10;99.90;;;;;;6224852;28;20472;-62
2022/12/01 04:09:23;;;;;;;5.43;4.63;;;6.20;99.90;;;;;;6225248;28;20591;-63
2022/12/01 04:12:29;;;;;;;5.10;4.60;;;6.10;99.90;;;;;;6224991;28;20479;-63
2022/12/01 04:15:32;;;;;;;5.40;4.30;;;6.10;99.90;;;;;;6225244;28;20476;-62
2022/12/01 04:18:36;;;;;;;7.70;5.40;;;6.10;99.90;;;;;;6220885;28;20538;-62
2022/12/01 04:21:40;;;;;;;6.37;5.77;;;6.00;99.90;;;;;;6225221;28;20487;-63
2022/12/01 04:24:44;;;;;;;6.40;5.80;;;6.00;99.90;;;;;;6271390;28;20470;-63
2022/12/01 04:27:47;;;;;;;6.97;6.23;;;6.10;99.90;;;;;;6274794;28;20508;-63
2022/12/01 04:30:50;;;;;;;6.37;5.77;;;6.10;99.90;;;;;;6256467;28;20509;-63
2022/12/01 04:33:54;;;;;;;6.23;5.63;;;6.00;99.90;;;;;;6249568;28;20471;-63
2022/12/01 04:36:59;;;;;;;5.27;4.77;;;6.00;99.90;;;;;;6249566;28;20475;-63
2022/12/01 04:40:02;;;;;;;6.57;5.50;;;6.00;99.90;;;;;;6249514;28;20490;-63
2022/12/01 04:43:05;;;;;;;6.40;4.80;;;5.90;99.90;;;;;;6249504;28;20486;-63
2022/12/01 04:46:09;;;;;;;8.00;6.07;;;5.90;99.90;;;;;;6249653;28;20471;-63
2022/12/01 04:49:12;;;;;;;5.57;5.07;;;5.80;99.90;;;;;;6249193;28;20486;-63
2022/12/01 04:52:17;;;;;;;6.33;5.73;;;5.80;99.90;;;;;;6249052;28;20471;-63
2022/12/01 04:55:21;;;;;;;5.27;4.87;;;5.90;99.90;;;;;;6249490;28;20537;-63
2022/12/01 04:58:24;;;;;;;7.07;5.80;;;5.90;99.90;;;;;;6249216;28;20950;-64
2022/12/01 05:01:27;;;;;;;7.47;5.70;;;5.90;99.90;;;;;;6249138;28;20798;-63
2022/12/01 05:04:32;;;;;;;7.83;5.50;;;5.90;99.90;;;;;;6249305;28;20466;-64
2022/12/01 05:07:37;;;;;;;7.77;5.20;;;6.00;99.90;;;;;;6249078;28;20498;-64
2022/12/01 05:10:40;;;;;;;5.67;5.03;;;6.00;99.90;;;;;;6248921;28;20483;-64
2022/12/01 05:13:45;;;;;;;5.80;4.83;;;6.00;99.90;;;;;;6249317;28;20482;-64
2022/12/01 05:16:48;;;;;;;5.13;4.63;;;6.00;99.90;;;;;;6249647;28;20585;-65
2022/12/01 05:23:13;;;;;;;5.00;4.47;;;6.00;99.90;;;;;;6263748;28;20458;-63
2022/12/01 05:26:19;;;;;;;5.13;4.20;;;5.90;99.90;;;;;;6278942;28;20466;-64
2022/12/01 05:29:22;;;;;;;6.60;5.17;;;5.90;99.90;;;;;;6272268;28;20927;-63
2022/12/01 05:32:25;;;;;;;6.00;5.20;;;5.90;99.90;;;;;;6252858;28;20889;-63
2022/12/01 05:35:28;;;;;;;5.70;5.20;;;6.00;99.90;;;;;;6253009;28;20482;-63
2022/12/01 05:38:33;;;;;;;4.17;3.77;;;6.00;99.90;;;;;;6253043;28;20463;-63
2022/12/01 05:41:36;;;;;;;5.67;5.17;;;6.00;99.90;;;;;;6252966;28;20506;-63
2022/12/01 05:44:39;;;;;;;5.03;4.53;;;6.00;99.90;;;;;;6253111;28;20475;-63
2022/12/01 05:47:42;;;;;;;4.47;4.17;;;6.00;99.90;;;;;;6252759;28;20488;-63
2022/12/01 05:50:45;;;;;;;5.40;4.90;;;6.00;99.90;;;;;;6252975;28;20486;-63
2022/12/01 05:53:50;;;;;;;5.33;4.87;;;6.10;99.90;;;;;;6252822;28;20482;-64
2022/12/01 05:56:53;;;;;;;6.07;5.27;;;6.00;99.90;;;;;;6252567;28;20475;-64
2022/12/01 05:59:56;;;;;;;6.80;5.57;;;6.10;99.90;;;;;;6252519;28;20475;-63
2022/12/01 06:02:59;;;;;;;5.57;5.07;;;6.00;99.90;;;;;;6252295;28;20964;-64
2022/12/01 06:06:03;;;;;;;6.70;5.80;;;6.00;99.90;;;;;;6252749;28;20528;-63
2022/12/01 06:09:08;;;;;;;5.20;4.70;;;6.00;99.90;;;;;;6252035;28;20475;-63
2022/12/01 06:12:11;;;;;;;6.70;4.97;;;6.10;99.90;;;;;;6252385;28;20502;-64
2022/12/01 06:15:14;;;;;;;6.20;5.60;;;6.10;99.90;;;;;;6251926;28;20947;-64
2022/12/01 06:18:17;;;;;;;6.30;5.70;;;6.10;99.90;;;;;;6252320;28;20463;-63
2022/12/01 06:21:20;;;;;;;6.40;5.80;;;6.10;99.90;;;;;;6251890;28;20471;-64
2022/12/01 06:24:25;;;;;;;7.00;6.30;;;6.10;99.90;;;;;;6272218;28;20988;-64
2022/12/01 06:27:28;;;;;;;7.17;6.40;;;6.10;99.90;;;;;;6276304;28;20478;-64
2022/12/01 06:30:31;;;;;;;6.53;5.83;;;6.10;99.90;;;;;;6261514;28;20479;-63
2022/12/01 06:33:34;;;;;;;6.90;6.30;;;6.10;99.90;;;;;;6251522;28;20479;-64
2022/12/01 06:36:38;;;;;;;6.80;6.10;;;6.10;99.90;;;;;;6251557;28;20475;-60
2022/12/01 06:39:42;;;;;;;6.47;5.87;;;6.00;99.90;;;;;;6251828;28;20495;-61
2022/12/01 06:42:45;;;;;;;7.13;6.43;;;6.00;99.90;;;;;;6251250;28;20490;-60
2022/12/01 06:45:48;;;;;;;7.13;6.43;;;6.00;99.90;;;;;;6251357;28;21041;-60
2022/12/01 06:48:52;;;;;;;7.60;6.77;;;6.00;99.90;;;;;;6250978;28;20476;-60
2022/12/01 06:51:55;;;;;;;7.87;7.07;;;6.00;99.90;;;;;;6251269;28;20622;-60
2022/12/01 06:55:00;;;;;;;7.00;6.10;;;6.00;99.90;;;;;;6251109;28;20490;-60
2022/12/01 06:58:03;;;;;;;6.67;6.07;;;6.00;99.90;;;;;;6250955;28;20471;-60
2022/12/01 07:01:11;;;;;;;7.63;6.93;;;6.00;99.90;;;;;;6250790;28;20467;-60
2022/12/01 07:04:15;;;;;;;8.20;6.83;;;6.00;99.90;;;;;;6251074;28;20473;-63
2022/12/01 07:07:18;;;;;;;7.10;6.40;;;6.00;99.90;;;;;;6250633;28;20572;-65
2022/12/01 07:10:23;;;;;;;6.60;6.00;;;6.10;99.90;;;;;;6250704;28;20471;-64
2022/12/01 07:13:26;;;;;;;7.37;6.47;;;6.10;99.90;;;;;;6250909;28;20471;-61
2022/12/01 07:16:35;;;;;;;10.60;8.23;;;6.10;99.90;;;;;;6250663;28;20548;-62
2022/12/01 07:19:38;;;;;;;8.33;7.57;;;6.00;99.90;;;;;;6250602;28;20467;-62
2022/12/01 07:22:42;;;;;;;7.70;6.90;;;6.00;99.90;;;;;;6256797;28;20581;-62
2022/12/01 07:25:46;;;;;;;7.70;7.07;;;6.10;99.90;;;;;;6275450;28;20470;-63
2022/12/01 07:28:49;;;;;;;8.87;7.63;;;6.10;99.90;;;;;;6273945;28;20624;-62
2022/12/01 07:31:53;;;;;;;8.27;7.40;;;6.10;99.90;;;;;;6241257;28;20475;-61
2022/12/01 07:34:56;;;;;;;7.97;7.17;;;6.00;99.90;;;;;;6250325;28;20443;-62
2022/12/01 07:37:59;;;;;;;7.73;6.57;;;6.10;99.90;;;;;;6250712;28;20447;-62
2022/12/01 07:41:05;;;;;;;8.70;7.73;;;6.10;99.90;;;;;;6248988;28;20479;-61
2022/12/01 07:44:09;;;;;;;8.20;7.27;;;6.10;99.90;;;;;;6250550;28;20502;-61
2022/12/01 07:47:12;;;;;;;8.13;7.53;;;6.10;99.90;;;;;;6249859;28;20451;-61
2022/12/01 07:50:16;;;;;;;7.73;6.60;;;6.00;99.90;;;;;;6250183;28;20466;-62
2022/12/01 07:53:19;;;;;;;9.77;8.77;;;6.00;99.90;;;;;;6250197;28;20471;-61
2022/12/01 07:56:24;;;;;;;6.93;6.23;;;6.00;99.90;;;;;;6249860;28;20947;-61
2022/12/01 07:59:27;;;;;;;8.07;6.23;;;6.00;99.90;;;;;;6250843;28;20490;-62
2022/12/01 08:02:30;;;;;;;6.90;6.20;;;6.00;99.90;;;;;;6250185;28;20804;-62
2022/12/01 08:05:33;;;;;;;8.63;7.30;;;5.90;99.90;;;;;;6254948;28;20467;-62
2022/12/01 08:08:38;;;;;;;7.70;6.90;;;5.90;99.90;;;;;;6263569;28;20462;-62
2022/12/01 08:11:42;;;;;;;7.93;6.83;;;6.00;99.90;;;;;;6260909;28;20467;-61
2022/12/01 08:14:45;;;;;;;9.40;8.53;;;6.10;99.90;;;;;;6257299;28;20479;-61
2022/12/01 08:17:49;;;;;;;8.83;7.77;;;6.10;99.90;;;;;;6250033;28;20463;-62
2022/12/01 08:20:56;;;;;;;7.80;7.07;;;6.10;99.90;;;;;;6249501;28;20963;-62
2022/12/01 08:23:59;;;;;;;8.87;7.97;;;6.20;99.90;;;;;;6266397;28;20477;-62
2022/12/01 08:27:04;;;;;;;8.80;7.93;;;6.20;99.90;;;;;;6273896;28;20470;-62
2022/12/01 08:30:08;;;;;;;7.63;6.93;;;6.20;99.90;;;;;;6262619;28;20482;-62
2022/12/01 08:33:11;;;;;;;7.83;7.13;;;6.20;99.90;;;;;;6246616;28;20475;-61
2022/12/01 08:36:16;;;;;;;8.77;7.90;;;6.20;99.90;;;;;;6262173;28;20478;-62
2022/12/01 08:39:19;;;;;;;8.10;7.30;;;6.20;99.90;;;;;;6257349;28;20475;-62
2022/12/01 08:42:24;;;;;;;7.10;6.50;;;6.30;99.90;;;;;;6275307;28;20483;-62
2022/12/01 08:45:27;;;;;;;8.20;6.73;;;6.30;99.90;;;;;;6274736;28;20470;-62
2022/12/01 08:48:30;;;;;;;7.90;7.10;;;6.30;99.90;;;;;;6274028;28;20478;-62
2022/12/01 08:51:34;;;;;;;8.80;7.93;;;6.40;99.90;;;;;;6275804;28;20474;-62
2022/12/01 08:54:37;;;;;;;7.07;6.10;;;6.40;99.90;;;;;;6272622;28;20474;-62
2022/12/01 08:57:42;;;;;;;7.70;6.43;;;6.40;99.90;;;;;;6249426;28;20939;-62
2022/12/01 09:00:45;;;;;;;10.73;6.50;;;6.40;99.90;;;;;;6253804;28;20482;-62
2022/12/01 09:04:03;;;;;;;9.70;8.80;;;6.40;99.90;;;;;;6257625;28;20963;-62
2022/12/01 09:07:10;;;;;;;9.33;8.50;;;6.40;99.90;;;;;;6253827;28;20511;-62
2022/12/01 09:10:13;;;;;;;8.50;7.70;;;6.50;99.90;;;;;;6253772;28;20475;-62
2022/12/01 09:13:18;;;;;;;9.70;7.00;;;6.40;99.90;;;;;;6253580;28;20840;-62
2022/12/01 09:16:22;;;;;;;7.93;7.00;;;6.50;99.90;;;;;;6256423;28;20470;-62
2022/12/01 09:19:27;;;;;;;10.93;8.07;;;6.50;99.90;;;;;;6257451;28;20483;-62
2022/12/01 09:22:30;;;;;;;10.57;9.57;;;6.50;99.90;;;;;;6262345;28;20851;-62
2022/12/01 09:25:34;;;;;;;8.67;7.83;;;6.50;99.90;;;;;;6280892;28;20489;-62
2022/12/01 09:28:38;;;;;;;7.87;7.20;;;6.50;99.90;;;;;;6278113;28;20493;-61
2022/12/01 09:31:42;;;;;;;8.67;7.87;;;6.50;99.90;;;;;;6252874;28;20467;-61
2022/12/01 09:34:46;;;;;;;8.10;7.37;;;6.50;99.90;;;;;;6253091;28;20470;-61
2022/12/01 09:37:49;;;;;;;7.47;6.77;;;6.50;99.90;;;;;;6253135;28;20477;-64
2022/12/01 09:40:52;;;;;;;8.30;7.50;;;6.60;99.90;;;;;;6247983;28;20979;-65
2022/12/01 09:44:04;;;;;;;7.67;7.07;;;6.60;99.90;;;;;;6252894;28;20530;-64
2022/12/01 09:47:17;;;;;;;6.63;5.63;;;6.60;99.90;;;;;;6253241;28;20450;-65
2022/12/01 09:50:24;;;;;;;7.10;6.20;;;6.60;99.90;;;;;;6252695;28;20527;-64
2022/12/01 09:53:30;;;;;;;5.83;5.33;;;6.50;99.90;;;;;;6252596;28;20478;-65
2022/12/01 09:56:41;;;;;;;6.63;5.90;;;6.40;99.90;;;;;;6252094;28;20467;-66
2022/12/01 09:59:46;;;;;;;6.20;5.60;;;6.30;99.90;;;;;;6251949;28;20930;-64
2022/12/01 10:02:55;;;;;;;7.00;6.30;;;6.20;99.90;;;;;;6251572;28;20530;-66
2022/12/01 10:06:03;;;;;;;7.30;6.60;;;6.20;99.90;;;;;;6252388;28;20482;-63
2022/12/01 10:09:34;;;;;;;6.47;5.77;;;6.20;99.90;;;;;;6251428;28;20851;-64
2022/12/01 10:12:38;;;;;;;6.23;5.60;;;6.20;99.90;;;;;;6252027;28;20533;-64
2022/12/01 10:15:48;;;;;;;6.40;5.90;;;6.10;99.90;;;;;;6252210;28;20467;-64
2022/12/01 10:18:58;;;;;;;6.77;5.33;;;6.10;99.90;;;;;;6261293;28;20479;-64
2022/12/01 10:22:42;;;;;;;8.80;7.90;;;6.10;99.90;;;;;;6259119;28;20471;-64
2022/12/01 10:25:52;;;;;;;8.20;6.03;;;6.10;99.90;;;;;;6277545;28;20481;-65
2022/12/01 10:29:10;;;;;;;5.20;4.80;;;6.10;99.90;;;;;;6248116;28;20495;-65
2022/12/01 10:32:18;;;;;;;6.20;4.97;;;6.10;99.90;;;;;;6250022;28;25855;-66
2022/12/01 10:35:25;;;;;;;6.97;5.90;;;6.00;99.90;;;;;;6251855;28;20467;-66
2022/12/01 10:38:32;;;;;;;6.93;6.23;;;6.00;99.90;;;;;;6228988;28;20467;-66
2022/12/01 10:41:38;;;;;;;5.23;4.73;;;6.10;99.90;;;;;;6226381;28;20461;-66
2022/12/01 10:44:42;;;;;;;6.40;5.50;;;6.10;99.90;;;;;;6230628;28;20463;-67
2022/12/01 10:48:14;;;;;;;5.90;5.30;;;6.20;99.90;;;;;;6253201;28;21001;-66
2022/12/01 10:51:19;;;;;;;5.57;5.07;;;6.10;99.90;;;;;;6252299;28;20482;-66
2022/12/01 10:54:26;;;;;;;6.10;5.17;;;6.20;99.90;;;;;;6253740;28;20470;-67
2022/12/01 10:57:30;;;;;;;6.47;5.87;;;6.40;99.90;;;;;;6263834;28;20471;-66
2022/12/01 11:00:37;;;;;;;5.43;5.00;;;6.40;99.90;;;;;;6242051;28;20474;-66
2022/12/01 11:04:06;;;;;;;5.67;5.17;;;6.40;99.90;;;;;;6225752;28;20611;-65
2022/12/01 11:07:16;;;;;;;5.80;5.30;;;6.30;99.90;;;;;;6226351;28;20468;-65
2022/12/01 11:10:22;;;;;;;7.53;6.80;;;6.30;99.90;;;;;;6248966;28;20487;-67
2022/12/01 11:13:28;;;;;;;6.57;5.97;;;6.40;99.90;;;;;;6250911;28;20525;-67
2022/12/01 11:16:37;;;;;;;7.93;7.03;;;6.40;99.90;;;;;;6250593;28;20482;-67
2022/12/01 11:19:41;;;;;;;6.93;6.10;;;6.50;99.90;;;;;;6250509;28;20471;-67
2022/12/01 11:22:45;;;;;;;6.40;5.60;;;6.40;99.90;;;;;;6257448;28;20477;-66
2022/12/01 11:25:57;;;;;;;5.80;5.30;;;6.50;99.90;;;;;;6275086;28;20949;-67
2022/12/01 11:29:03;;;;;;;6.93;6.20;;;6.50;99.90;;;;;;6260661;28;20475;-67
2022/12/01 11:32:17;;;;;;;7.13;6.53;;;6.50;99.90;;;;;;6258512;28;20536;-66
2022/12/01 11:35:24;;;;;;;6.83;6.20;;;6.50;99.90;;;;;;6257848;28;20476;-65
2022/12/01 11:38:33;;;;;;;6.87;5.87;;;6.50;99.90;;;;;;6264478;28;20479;-65
2022/12/01 11:41:39;;;;;;;8.20;7.20;;;6.60;99.90;;;;;;6244866;23;20483;-65
2022/12/01 11:44:50;;;;;;;8.70;7.47;;;6.60;99.90;;;;;;6246045;28;20471;-65
2022/12/01 11:48:04;;;;;;;8.60;7.80;;;6.50;99.90;;;;;;6244361;28;20495;-65
2022/12/01 11:51:15;;;;;;;7.40;6.50;;;6.50;99.90;;;;;;6248694;28;21108;-65
2022/12/01 11:54:23;;;;;;;8.33;7.53;;;6.60;99.90;;;;;;6239511;28;20554;-65
2022/12/01 11:57:27;;;;;;;10.10;7.03;;;6.60;99.90;;;;;;6236652;28;20900;-65
2022/12/01 12:00:46;;;;;;;7.80;7.00;;;6.70;99.90;;;;;;6233636;28;20970;-65
2022/12/01 12:03:58;;;;;;;7.63;6.93;;;6.60;99.90;;;;;;6238276;28;20702;-65
2022/12/01 12:07:15;;;;;;;6.93;6.33;;;6.70;99.90;;;;;;6237397;28;21063;-65
2022/12/01 12:10:33;;;;;;;6.23;5.63;;;6.80;99.90;;;;;;6247485;28;20483;-66
2022/12/01 12:13:57;;;;;;;9.10;7.43;;;6.80;99.90;;;;;;6249269;28;20482;-65
2022/12/01 12:17:15;;;;;;;7.60;6.90;;;6.80;99.90;;;;;;6247914;28;20621;-65
2022/12/01 12:20:30;;;;;;;8.50;7.70;;;6.80;99.90;;;;;;6248256;28;20522;-66
2022/12/01 12:24:00;;;;;;;8.60;7.80;;;6.80;99.90;;;;;;6271435;28;20481;-65
2022/12/01 12:27:13;;;;;;;9.63;8.83;;;6.90;99.90;;;;;;6265448;28;20547;-65
2022/12/01 12:30:22;;;;;;;8.80;8.00;;;6.80;99.90;;;;;;6253789;28;20565;-65
2022/12/01 12:34:07;;;;;;;7.50;6.57;;;6.80;99.90;;;;;;6254515;28;20471;-66
2022/12/01 12:37:20;;;;;;;7.53;6.83;;;6.80;99.90;;;;;;6230807;28;20467;-66
2022/12/01 12:40:38;;;;;;;6.07;5.47;;;6.90;99.90;;;;;;6253687;28;20494;-64
2022/12/01 12:43:49;;;;;;;7.00;6.40;;;6.80;99.90;;;;;;6254338;28;20475;-64
2022/12/01 12:47:02;;;;;;;7.93;6.00;;;6.80;99.90;;;;;;6253964;28;20974;-65
2022/12/01 12:50:17;;;;;;;7.30;6.60;;;6.80;99.90;;;;;;6254251;28;20490;-65
2022/12/01 12:53:24;;;;;;;7.97;7.37;;;6.80;99.90;;;;;;6253693;28;20455;-64
2022/12/01 12:56:31;;;;;;;7.70;7.00;;;6.70;99.90;;;;;;6253396;28;20796;-65
2022/12/01 12:59:42;;;;;;;6.40;5.80;;;6.60;99.90;;;;;;6254649;28;20478;-64
2022/12/01 13:02:49;;;;;;;8.03;7.23;;;6.50;99.90;;;;;;6253843;28;20471;-64
2022/12/01 13:05:57;;;;;;;6.87;6.13;;;6.50;99.90;;;;;;6254087;28;20609;-64
2022/12/01 13:09:07;;;;;;;8.60;7.80;;;6.50;99.90;;;;;;6253280;28;20490;-64
2022/12/01 13:12:26;;;;;;;8.00;7.20;;;6.40;99.90;;;;;;6253571;28;20590;-64
2022/12/01 13:15:32;;;;;;;7.13;6.43;;;6.40;99.90;;;;;;6253581;28;20486;-64
2022/12/01 13:18:41;;;;;;;7.17;6.47;;;6.40;99.90;;;;;;6253090;28;20554;-64
2022/12/01 13:21:48;;;;;;;10.73;7.90;;;6.50;99.90;;;;;;6253358;28;20582;-66
2022/12/01 13:24:52;;;;;;;7.53;6.83;;;6.50;99.90;;;;;;6277084;28;20470;-65
2022/12/01 13:27:58;;;;;;;8.27;6.73;;;6.50;99.90;;;;;;6273086;28;20524;-64
2022/12/01 13:31:04;;;;;;;7.77;7.07;;;6.50;99.90;;;;;;6253041;28;20487;-64
2022/12/01 13:34:07;;;;;;;7.70;7.00;;;6.60;99.90;;;;;;6252979;28;20467;-64
2022/12/01 13:37:11;;;;;;;7.30;6.60;;;6.60;99.90;;;;;;6252108;28;20483;-64
2022/12/01 13:40:22;;;;;;;7.30;6.70;;;6.60;99.90;;;;;;6252372;28;20494;-65
2022/12/01 13:43:27;;;;;;;8.20;7.50;;;6.50;99.90;;;;;;6252716;28;20471;-65
2022/12/01 13:46:33;;;;;;;7.03;6.33;;;6.50;99.90;;;;;;6252387;28;20827;-65
2022/12/01 13:49:41;;;;;;;7.63;6.90;;;6.60;99.90;;;;;;6252486;28;20483;-65
2022/12/01 13:52:50;;;;;;;8.10;7.30;;;6.60;99.90;;;;;;6243692;28;20486;-65
2022/12/01 13:56:00;;;;;;;7.13;6.43;;;6.60;99.90;;;;;;6253414;28;20479;-65
2022/12/01 13:59:54;;;;;;;7.37;6.30;;;6.60;99.90;;;;;;6254339;28;20950;-65
2022/12/01 14:03:32;;;;;;;7.67;6.90;;;6.60;99.90;;;;;;6228923;28;20955;-66
2022/12/01 14:06:45;;;;;;;7.93;7.20;;;6.60;99.90;;;;;;6252014;28;21013;-65
2022/12/01 14:09:50;;;;;;;8.27;7.13;;;6.60;99.90;;;;;;6252696;28;20463;-66
2022/12/01 14:12:57;;;;;;;7.50;6.50;;;6.60;99.90;;;;;;6251681;28;20479;-66
2022/12/01 14:16:04;;;;;;;7.30;6.43;;;6.60;99.90;;;;;;6251982;28;20972;-66
2022/12/01 14:19:24;;;;;;;8.40;7.70;;;6.60;99.90;;;;;;6251715;28;20479;-65
2022/12/01 14:22:37;;;;;;;12.17;10.30;;;6.60;99.90;;;;;;6255909;28;20475;-66
2022/12/01 14:25:42;;;;;;;8.00;7.30;;;6.60;99.90;;;;;;6277981;28;21134;-66
2022/12/01 14:29:41;;;;;;;8.90;8.00;;;6.70;99.90;;;;;;6274090;28;20955;-65
2022/12/01 14:32:46;;;;;;;9.07;7.07;;;6.70;99.90;;;;;;6189427;28;20471;-66
2022/12/01 14:35:50;;;;;;;8.47;7.30;;;6.70;99.90;;;;;;6252263;28;20471;-66
2022/12/01 14:39:06;;;;;;;8.60;7.70;;;6.60;99.90;;;;;;6251374;28;20498;-65
2022/12/01 14:44:02;;;;;;;8.00;7.30;;;6.60;99.90;;;;;;6251107;28;20799;-65
2022/12/01 14:46:05;;;;;;;8.97;8.07;;;6.50;99.90;;;;;;6251212;28;20483;-66
2022/12/01 14:49:21;;;;;;;12.37;9.10;;;6.50;99.90;;;;;;6250831;28;20490;-65
2022/12/01 14:52:31;;;;;;;10.10;9.13;;;6.40;99.90;;;;;;6242251;28;20491;-65
2022/12/01 14:55:40;;;;;;;10.27;8.27;;;6.30;99.90;;;;;;6250818;28;21013;-65
2022/12/01 14:58:53;;;;;;;9.87;8.80;;;6.30;99.90;;;;;;6250706;28;20665;-65
2022/12/01 15:02:07;;;;;;;10.83;9.07;;;6.30;99.90;;;;;;6250843;28;20467;-65
2022/12/01 15:05:14;;;;;;;13.27;11.70;;;6.30;99.90;;;;;;6250923;28;20466;-66
2022/12/01 15:08:22;;;;;;;14.33;13.00;;;6.30;99.90;;;;;;6250290;28;20606;-65
2022/12/01 15:11:53;;;;;;;11.33;9.40;;;6.40;99.90;;;;;;6250216;28;20542;-66
2022/12/01 15:14:56;;;;;;;11.40;9.53;;;6.40;99.90;;;;;;6250580;28;20485;-67
2022/12/01 15:18:00;;;;;;;12.00;10.80;;;6.40;99.90;;;;;;6250567;28;20486;-67
2022/12/01 15:21:09;;;;;;;12.03;9.17;;;6.40;99.90;;;;;;6250938;28;20471;-66
2022/12/01 15:24:23;;;;;;;13.13;10.43;;;6.40;99.90;;;;;;6269313;28;20481;-64
2022/12/01 15:27:28;;;;;;;10.50;9.50;;;6.40;99.90;;;;;;6274243;28;20474;-66
2022/12/01 15:30:32;;;;;;;13.20;11.80;;;6.40;99.90;;;;;;6250255;28;20472;-68
2022/12/01 15:33:37;;;;;;;13.13;11.83;;;6.40;99.90;;;;;;6250242;28;20602;-66
2022/12/01 15:36:42;;;;;;;11.63;10.40;;;6.50;99.90;;;;;;6250132;28;20478;-66
2022/12/01 15:39:49;;;;;;;12.43;11.20;;;6.40;99.90;;;;;;6249807;28;20503;-67
2022/12/01 15:43:04;;;;;;;11.90;10.70;;;6.50;99.90;;;;;;6249206;28;20471;-66
2022/12/01 15:46:13;;;;;;;11.37;10.27;;;6.50;99.90;;;;;;6249413;28;20479;-66
2022/12/01 15:49:21;;;;;;;12.73;11.40;;;6.50;99.90;;;;;;6248015;28;20494;-63
2022/12/01 15:52:25;;;;;;;13.70;11.90;;;6.40;99.90;;;;;;6249749;28;20815;-61
2022/12/01 15:55:33;;;;;;;15.47;11.87;;;6.40;99.90;;;;;;6241272;28;20494;-61
2022/12/01 15:58:42;;;;;;;12.90;11.50;;;6.50;99.90;;;;;;6250166;28;20471;-63
2022/12/01 16:01:46;;;;;;;13.77;12.23;;;6.50;99.90;;;;;;6250103;28;20475;-62
2022/12/01 16:04:59;;;;;;;14.40;12.40;;;6.50;99.90;;;;;;6250187;28;20467;-63
2022/12/01 16:08:16;;;;;;;16.80;13.40;;;6.50;99.90;;;;;;6250118;28;20439;-62
2022/12/01 16:11:20;;;;;;;14.20;12.63;;;6.50;99.90;;;;;;6249331;28;20478;-63
2022/12/01 16:14:24;;;;;;;16.23;13.17;;;6.50;99.90;;;;;;6249465;28;20555;-62
2022/12/01 16:17:41;;;;;;;16.07;13.30;;;6.50;99.90;;;;;;6249331;28;20475;-62
2022/12/01 16:20:44;;;;;;;17.03;12.23;;;6.50;99.90;;;;;;6249335;28;20475;-61
2022/12/01 16:23:58;;;;;;;14.53;13.07;;;6.50;99.90;;;;;;6264521;28;20853;-61
2022/12/01 16:27:04;;;;;;;12.40;11.10;;;6.40;99.90;;;;;;6274244;28;20466;-62
2022/12/01 16:30:21;;;;;;;11.57;10.10;;;6.40;99.90;;;;;;6251197;28;20483;-63